createdAt,value
2018-05-02T00:00:59.714Z,3.68
2018-05-02T00:01:59.661Z,3.63
2018-05-02T00:02:59.654Z,3.62
2018-05-02T00:03:59.560Z,3.66
2018-05-02T00:04:59.502Z,3.60
2018-05-02T00:05:59.446Z,3.65
2018-05-02T00:06:59.397Z,3.50
2018-05-02T00:07:59.380Z,3.56
2018-05-02T00:08:59.294Z,3.53
2018-05-02T00:09:59.244Z,3.50
2018-05-02T00:10:59.198Z,3.59
2018-05-02T00:11:59.175Z,3.51
2018-05-02T00:12:59.077Z,3.48
2018-05-02T00:13:59.024Z,3.44
2018-05-02T00:14:58.972Z,3.62
2018-05-02T00:15:58.919Z,3.56
2018-05-02T00:16:58.923Z,3.48
2018-05-02T00:17:58.840Z,3.53
2018-05-02T00:18:58.757Z,3.58
2018-05-02T00:19:58.704Z,3.55
2018-05-02T00:20:59.668Z,3.59
2018-05-02T00:21:58.633Z,3.45
2018-05-02T00:22:58.548Z,3.58
2018-05-02T00:23:58.516Z,3.60
2018-05-02T00:24:58.440Z,3.55
2018-05-02T00:25:58.395Z,3.56
2018-05-02T00:26:58.332Z,3.58
2018-05-02T00:27:58.333Z,3.60
2018-05-02T00:28:58.226Z,3.59
2018-05-02T00:29:58.179Z,3.53
2018-05-02T00:30:58.118Z,3.58
2018-05-02T00:31:58.070Z,3.53
2018-05-02T00:32:58.050Z,3.55
2018-05-02T00:33:57.995Z,3.51
2018-05-02T00:34:57.906Z,3.47
2018-05-02T00:35:57.852Z,3.56
2018-05-02T00:36:57.807Z,3.44
2018-05-02T00:37:57.748Z,3.56
2018-05-02T00:38:57.751Z,3.53
2018-05-02T00:39:57.639Z,3.59
2018-05-02T00:40:57.582Z,3.60
2018-05-02T00:41:57.528Z,3.62
2018-05-02T00:42:57.480Z,3.55
2018-05-02T00:43:57.475Z,3.59
2018-05-02T00:44:57.382Z,3.56
2018-05-02T00:45:57.317Z,3.56
2018-05-02T00:46:57.267Z,3.53
2018-05-02T00:47:57.212Z,3.56
2018-05-02T00:48:57.273Z,3.59
2018-05-02T00:49:57.105Z,3.48
2018-05-02T00:50:57.089Z,3.58
2018-05-02T00:51:57.004Z,3.48
2018-05-02T00:52:57.017Z,3.53
2018-05-02T00:53:56.891Z,3.45
2018-05-02T00:54:56.837Z,3.53
2018-05-02T00:55:56.829Z,3.53
2018-05-02T00:56:56.735Z,3.47
2018-05-02T00:57:56.677Z,3.41
2018-05-02T00:58:56.624Z,3.45
2018-05-02T00:59:56.574Z,3.48
2018-05-02T01:00:56.655Z,3.44
2018-05-02T01:01:56.467Z,3.28
2018-05-02T01:02:56.419Z,3.34
2018-05-02T01:03:56.354Z,3.40
2018-05-02T01:04:56.324Z,3.36
2018-05-02T01:05:56.285Z,3.29
2018-05-02T01:06:56.193Z,3.31
2018-05-02T01:07:56.143Z,3.28
2018-05-02T01:08:56.089Z,3.36
2018-05-02T01:09:56.079Z,3.25
2018-05-02T01:10:55.988Z,3.29
2018-05-02T01:11:55.925Z,3.25
2018-05-02T01:12:55.877Z,3.26
2018-05-02T01:13:55.827Z,3.32
2018-05-02T01:14:55.802Z,3.37
2018-05-02T01:15:55.716Z,3.28
2018-05-02T01:16:55.697Z,3.32
2018-05-02T01:17:55.607Z,3.37
2018-05-02T01:18:55.552Z,3.34
2018-05-02T01:19:55.547Z,3.31
2018-05-02T01:20:55.480Z,3.32
2018-05-02T01:21:55.407Z,3.32
2018-05-02T01:22:55.350Z,3.31
2018-05-02T01:23:55.286Z,3.36
2018-05-02T01:24:55.239Z,3.23
2018-05-02T01:25:55.208Z,3.28
2018-05-02T01:26:55.122Z,3.22
2018-05-02T01:27:55.100Z,3.13
2018-05-02T01:28:55.016Z,3.18
2018-05-02T01:29:54.960Z,3.10
2018-05-02T01:30:54.911Z,3.18
2018-05-02T01:31:54.853Z,3.13
2018-05-02T01:32:54.834Z,3.16
2018-05-02T01:33:54.747Z,3.07
2018-05-02T01:34:54.711Z,3.08
2018-05-02T01:35:54.652Z,3.10
2018-05-02T01:36:54.585Z,3.08
2018-05-02T01:37:54.567Z,3.03
2018-05-02T01:38:54.475Z,3.04
2018-05-02T01:39:54.460Z,3.08
2018-05-02T01:40:54.373Z,3.10
2018-05-02T01:41:54.314Z,3.08
2018-05-02T01:42:54.262Z,3.04
2018-05-02T01:43:54.211Z,3.05
2018-05-02T01:44:54.187Z,3.01
2018-05-02T01:45:54.147Z,3.13
2018-05-02T01:46:54.082Z,3.07
2018-05-02T01:47:53.996Z,3.05
2018-05-02T01:48:53.941Z,3.05
2018-05-02T01:49:53.885Z,3.05
2018-05-02T01:50:53.838Z,3.08
2018-05-02T01:51:53.812Z,3.10
2018-05-02T01:52:53.734Z,3.10
2018-05-02T01:53:53.669Z,3.10
2018-05-02T01:54:53.616Z,3.11
2018-05-02T01:55:53.566Z,3.10
2018-05-02T01:56:53.553Z,3.08
2018-05-02T01:57:53.458Z,3.07
2018-05-02T01:58:53.406Z,3.11
2018-05-02T01:59:53.383Z,3.10
2018-05-02T02:00:53.299Z,3.05
2018-05-02T02:01:53.249Z,3.11
2018-05-02T02:02:53.185Z,3.04
2018-05-02T02:03:53.135Z,3.11
2018-05-02T02:04:53.123Z,3.08
2018-05-02T02:05:53.024Z,3.11
2018-05-02T02:06:52.973Z,3.18
2018-05-02T02:07:52.920Z,3.18
2018-05-02T02:08:52.994Z,3.21
2018-05-02T02:09:52.812Z,3.25
2018-05-02T02:10:52.755Z,3.31
2018-05-02T02:11:52.713Z,3.29
2018-05-02T02:12:52.653Z,3.32
2018-05-02T02:13:52.650Z,3.34
2018-05-02T02:14:52.551Z,3.32
2018-05-02T02:15:52.565Z,3.28
2018-05-02T02:16:52.431Z,3.23
2018-05-02T02:17:52.384Z,3.22
2018-05-02T02:18:52.386Z,3.21
2018-05-02T02:19:52.272Z,3.23
2018-05-02T02:20:52.213Z,3.21
2018-05-02T02:21:52.163Z,3.25
2018-05-02T02:22:52.107Z,3.23
2018-05-02T02:23:52.098Z,3.22
2018-05-02T02:24:52.003Z,3.19
2018-05-02T02:25:51.950Z,3.18
2018-05-02T02:26:51.896Z,3.19
2018-05-02T02:27:51.840Z,3.13
2018-05-02T02:28:51.820Z,3.07
2018-05-02T02:29:51.729Z,3.10
2018-05-02T02:30:51.719Z,3.19
2018-05-02T02:31:51.625Z,3.11
2018-05-02T02:32:51.574Z,3.26
2018-05-02T02:33:51.521Z,3.16
2018-05-02T02:34:51.496Z,3.14
2018-05-02T02:35:51.411Z,3.23
2018-05-02T02:36:51.362Z,3.19
2018-05-02T02:37:51.304Z,3.28
2018-05-02T02:38:51.283Z,3.28
2018-05-02T02:39:51.195Z,3.28
2018-05-02T02:40:51.149Z,3.19
2018-05-02T02:41:51.093Z,3.16
2018-05-02T02:42:51.029Z,3.16
2018-05-02T02:43:51.015Z,3.14
2018-05-02T02:44:50.958Z,3.10
2018-05-02T02:45:50.873Z,3.18
2018-05-02T02:46:50.859Z,3.16
2018-05-02T02:47:50.767Z,3.23
2018-05-02T02:48:50.707Z,3.23
2018-05-02T02:49:50.657Z,3.23
2018-05-02T02:50:50.633Z,3.29
2018-05-02T02:51:50.546Z,3.25
2018-05-02T02:52:50.535Z,3.32
2018-05-02T02:53:50.439Z,3.37
2018-05-02T02:54:50.383Z,3.36
2018-05-02T02:55:50.331Z,3.34
2018-05-02T02:56:50.274Z,3.31
2018-05-02T02:57:50.250Z,3.41
2018-05-02T02:58:50.177Z,3.37
2018-05-02T02:59:50.112Z,3.40
2018-05-02T03:00:50.058Z,3.42
2018-05-02T03:01:50.046Z,3.41
2018-05-02T03:02:49.988Z,3.28
2018-05-02T03:03:49.899Z,3.32
2018-05-02T03:04:49.848Z,3.31
2018-05-02T03:05:49.826Z,3.29
2018-05-02T03:06:49.743Z,3.37
2018-05-02T03:07:49.682Z,3.26
2018-05-02T03:08:49.697Z,3.19
2018-05-02T03:09:49.578Z,3.22
2018-05-02T03:10:49.524Z,3.25
2018-05-02T03:11:49.470Z,3.25
2018-05-02T03:12:49.415Z,3.25
2018-05-02T03:13:49.397Z,3.26
2018-05-02T03:14:49.307Z,3.37
2018-05-02T03:15:49.252Z,3.31
2018-05-02T03:16:49.210Z,3.31
2018-05-02T03:17:49.150Z,3.42
2018-05-02T03:18:49.126Z,3.45
2018-05-02T03:19:49.038Z,3.45
2018-05-02T03:20:48.986Z,3.45
2018-05-02T03:21:48.936Z,3.47
2018-05-02T03:22:48.878Z,3.32
2018-05-02T03:23:48.860Z,3.37
2018-05-02T03:24:48.773Z,3.31
2018-05-02T03:25:48.718Z,3.22
2018-05-02T03:26:48.668Z,3.25
2018-05-02T03:27:48.642Z,3.31
2018-05-02T03:28:48.557Z,3.23
2018-05-02T03:29:48.512Z,3.18
2018-05-02T03:30:48.482Z,3.13
2018-05-02T03:31:48.397Z,3.11
2018-05-02T03:32:48.338Z,3.19
2018-05-02T03:33:48.293Z,3.14
2018-05-02T03:34:48.232Z,3.18
2018-05-02T03:35:48.208Z,3.16
2018-05-02T03:36:48.171Z,3.21
2018-05-02T03:37:48.111Z,3.28
2018-05-02T03:38:48.019Z,3.23
2018-05-02T03:39:47.961Z,3.23
2018-05-02T03:40:47.914Z,3.22
2018-05-02T03:41:47.856Z,3.23
2018-05-02T03:42:47.837Z,3.36
2018-05-02T03:43:47.746Z,3.40
2018-05-02T03:44:47.693Z,3.32
2018-05-02T03:45:47.639Z,3.32
2018-05-02T03:46:47.618Z,3.37
2018-05-02T03:47:47.534Z,3.40
2018-05-02T03:48:47.475Z,3.42
2018-05-02T03:49:47.469Z,3.50
2018-05-02T03:50:47.374Z,3.51
2018-05-02T03:51:47.312Z,3.55
2018-05-02T03:52:47.260Z,3.60
2018-05-02T03:53:47.210Z,3.59
2018-05-02T03:54:47.202Z,3.66
2018-05-02T03:55:47.103Z,3.60
2018-05-02T03:56:47.047Z,3.60
2018-05-02T03:57:47.025Z,3.59
2018-05-02T03:58:46.943Z,3.59
2018-05-02T03:59:46.975Z,3.58
2018-05-02T04:00:46.877Z,3.63
2018-05-02T04:01:46.784Z,3.56
2018-05-02T04:02:46.729Z,3.63
2018-05-02T04:03:46.676Z,3.62
2018-05-02T04:04:46.622Z,3.56
2018-05-02T04:05:46.595Z,3.62
2018-05-02T04:06:46.510Z,3.68
2018-05-02T04:07:46.496Z,3.56
2018-05-02T04:08:46.399Z,3.51
2018-05-02T04:09:46.348Z,3.44
2018-05-02T04:10:46.294Z,3.58
2018-05-02T04:11:46.240Z,3.45
2018-05-02T04:12:46.223Z,3.51
2018-05-02T04:13:46.131Z,3.51
2018-05-02T04:14:46.078Z,3.56
2018-05-02T04:15:46.024Z,3.59
2018-05-02T04:16:45.978Z,3.58
2018-05-02T04:17:45.963Z,3.66
2018-05-02T04:18:46.929Z,3.60
2018-05-02T04:19:45.809Z,3.63
2018-05-02T04:20:45.755Z,3.65
2018-05-02T04:21:45.703Z,3.76
2018-05-02T04:22:45.681Z,3.77
2018-05-02T04:23:45.628Z,3.78
2018-05-02T04:24:45.544Z,3.83
2018-05-02T04:25:45.495Z,3.84
2018-05-02T04:26:45.433Z,3.80
2018-05-02T04:27:45.395Z,3.87
2018-05-02T04:28:45.395Z,3.91
2018-05-02T04:29:45.289Z,3.94
2018-05-02T04:30:45.227Z,3.91
2018-05-02T04:31:45.168Z,3.99
2018-05-02T04:32:45.117Z,3.98
2018-05-02T04:33:45.100Z,3.98
2018-05-02T04:34:45.025Z,3.88
2018-05-02T04:35:44.989Z,3.95
2018-05-02T04:36:44.904Z,3.94
2018-05-02T04:37:44.885Z,3.95
2018-05-02T04:38:44.794Z,3.98
2018-05-02T04:39:44.740Z,3.91
2018-05-02T04:40:44.691Z,3.98
2018-05-02T04:41:44.671Z,4.08
2018-05-02T04:42:44.580Z,4.12
2018-05-02T04:43:44.543Z,4.19
2018-05-02T04:44:44.473Z,4.17
2018-05-02T04:45:44.423Z,4.23
2018-05-02T04:46:44.403Z,4.26
2018-05-02T04:47:44.315Z,4.30
2018-05-02T04:48:44.260Z,4.38
2018-05-02T04:49:44.215Z,4.35
2018-05-02T04:50:44.156Z,4.42
2018-05-02T04:51:44.131Z,4.50
2018-05-02T04:52:44.085Z,4.48
2018-05-02T04:53:43.989Z,4.48
2018-05-02T04:54:43.943Z,4.59
2018-05-02T04:55:43.926Z,4.62
2018-05-02T04:56:43.869Z,4.71
2018-05-02T04:57:43.780Z,4.78
2018-05-02T04:58:43.725Z,4.84
2018-05-02T04:59:43.669Z,4.99
2018-05-02T05:00:43.619Z,5.02
2018-05-02T05:01:43.600Z,4.94
2018-05-02T05:02:43.512Z,5.02
2018-05-02T05:03:43.463Z,5.08
2018-05-02T05:04:43.408Z,5.20
2018-05-02T05:05:43.354Z,5.26
2018-05-02T05:06:43.399Z,5.23
2018-05-02T05:07:43.250Z,5.25
2018-05-02T05:08:43.195Z,5.29
2018-05-02T05:09:43.174Z,5.35
2018-05-02T05:10:43.107Z,5.28
2018-05-02T05:11:43.043Z,5.36
2018-05-02T05:12:42.982Z,5.33
2018-05-02T05:13:42.965Z,5.38
2018-05-02T05:14:42.881Z,5.44
2018-05-02T05:15:42.864Z,5.44
2018-05-02T05:16:42.781Z,5.36
2018-05-02T05:17:42.716Z,5.38
2018-05-02T05:18:42.668Z,5.43
2018-05-02T05:19:42.614Z,5.47
2018-05-02T05:20:42.593Z,5.47
2018-05-02T05:21:42.505Z,5.44
2018-05-02T05:22:42.462Z,5.54
2018-05-02T05:23:42.411Z,5.61
2018-05-02T05:24:42.383Z,5.57
2018-05-02T05:25:42.296Z,5.62
2018-05-02T05:26:42.248Z,5.61
2018-05-02T05:27:42.233Z,5.53
2018-05-02T05:28:42.138Z,5.54
2018-05-02T05:29:42.119Z,5.59
2018-05-02T05:30:42.037Z,5.66
2018-05-02T05:31:41.984Z,5.71
2018-05-02T05:32:41.961Z,5.83
2018-05-02T05:33:41.876Z,5.73
2018-05-02T05:34:41.866Z,5.84
2018-05-02T05:35:41.778Z,5.97
2018-05-02T05:36:41.721Z,5.94
2018-05-02T05:37:41.683Z,6.05
2018-05-02T05:38:41.618Z,6.09
2018-05-02T05:39:41.600Z,6.22
2018-05-02T05:40:41.507Z,6.30
2018-05-02T05:41:41.500Z,6.30
2018-05-02T05:42:41.407Z,6.26
2018-05-02T05:43:41.530Z,6.41
2018-05-02T05:44:41.300Z,6.36
2018-05-02T05:45:41.258Z,6.42
2018-05-02T05:46:41.233Z,6.51
2018-05-02T05:47:41.149Z,6.60
2018-05-02T05:48:41.158Z,6.63
2018-05-02T05:49:41.042Z,6.70
2018-05-02T05:50:40.987Z,6.78
2018-05-02T05:51:40.935Z,6.88
2018-05-02T05:52:40.882Z,6.85
2018-05-02T05:53:40.876Z,6.89
2018-05-02T05:54:40.802Z,7.06
2018-05-02T05:55:40.766Z,7.02
2018-05-02T05:56:40.684Z,7.02
2018-05-02T05:57:40.625Z,7.20
2018-05-02T05:58:40.581Z,7.15
2018-05-02T05:59:40.547Z,7.20
2018-05-02T06:00:40.510Z,7.23
2018-05-02T06:01:40.494Z,7.25
2018-05-02T06:02:40.403Z,7.25
2018-05-02T06:03:40.316Z,7.29
2018-05-02T06:04:40.299Z,7.38
2018-05-02T06:05:40.211Z,7.39
2018-05-02T06:06:40.271Z,7.29
2018-05-02T06:07:40.116Z,7.39
2018-05-02T06:08:40.060Z,7.39
2018-05-02T06:09:40.012Z,7.33
2018-05-02T06:10:39.988Z,7.50
2018-05-02T06:11:39.901Z,7.48
2018-05-02T06:12:39.885Z,7.56
2018-05-02T06:13:39.805Z,7.54
2018-05-02T06:14:39.784Z,7.60
2018-05-02T06:15:39.702Z,7.67
2018-05-02T06:16:39.677Z,7.69
2018-05-02T06:17:39.593Z,7.63
2018-05-02T06:18:39.639Z,7.73
2018-05-02T06:19:39.491Z,7.67
2018-05-02T06:20:39.442Z,7.79
2018-05-02T06:21:39.427Z,7.76
2018-05-02T06:22:39.344Z,7.82
2018-05-02T06:23:39.288Z,7.76
2018-05-02T06:24:39.272Z,7.93
2018-05-02T06:25:39.186Z,7.88
2018-05-02T06:26:39.134Z,7.93
2018-05-02T06:27:39.088Z,8.00
2018-05-02T06:28:39.068Z,8.09
2018-05-02T06:29:38.986Z,8.12
2018-05-02T06:30:38.929Z,8.18
2018-05-02T06:31:38.896Z,8.20
2018-05-02T06:32:38.828Z,8.34
2018-05-02T06:33:38.812Z,8.42
2018-05-02T06:34:38.727Z,8.45
2018-05-02T06:35:38.675Z,8.46
2018-05-02T06:36:38.630Z,8.58
2018-05-02T06:37:38.668Z,8.67
2018-05-02T06:38:38.568Z,8.74
2018-05-02T06:39:38.511Z,8.82
2018-05-02T06:40:38.428Z,8.88
2018-05-02T06:41:38.378Z,8.85
2018-05-02T06:42:38.322Z,9.00
2018-05-02T06:43:38.309Z,8.95
2018-05-02T06:44:38.257Z,8.97
2018-05-02T06:45:38.188Z,8.97
2018-05-02T06:46:38.141Z,9.04
2018-05-02T06:47:38.070Z,9.14
2018-05-02T06:48:38.035Z,9.06
2018-05-02T06:49:38.007Z,9.11
2018-05-02T06:50:37.919Z,9.23
2018-05-02T06:51:37.873Z,9.28
2018-05-02T06:52:37.905Z,9.29
2018-05-02T06:53:37.770Z,9.37
2018-05-02T06:54:37.793Z,9.44
2018-05-02T06:55:37.673Z,9.40
2018-05-02T06:56:37.621Z,9.54
2018-05-02T06:57:55.796Z,9.59
2018-05-02T06:58:37.521Z,9.56
2018-05-02T06:59:37.474Z,9.69
2018-05-02T07:00:37.420Z,9.61
2018-05-02T07:01:37.384Z,9.69
2018-05-02T07:02:37.324Z,9.77
2018-05-02T07:03:37.358Z,9.69
2018-05-02T07:04:37.230Z,9.72
2018-05-02T07:05:37.227Z,9.76
2018-05-02T07:06:37.146Z,9.76
2018-05-02T07:07:37.122Z,9.79
2018-05-02T07:08:37.060Z,9.89
2018-05-02T07:09:36.988Z,9.94
2018-05-02T07:10:36.969Z,9.89
2018-05-02T07:11:36.924Z,9.87
2018-05-02T07:12:36.860Z,9.86
2018-05-02T07:13:36.818Z,9.98
2018-05-02T07:14:36.727Z,9.97
2018-05-02T07:15:36.672Z,10.02
2018-05-02T07:16:36.662Z,10.04
2018-05-02T07:17:36.576Z,10.10
2018-05-02T07:18:36.529Z,10.01
2018-05-02T07:19:36.477Z,10.07
2018-05-02T07:20:36.793Z,10.15
2018-05-02T07:21:36.402Z,10.19
2018-05-02T07:22:36.369Z,10.33
2018-05-02T07:23:36.286Z,10.40
2018-05-02T07:24:36.230Z,10.64
2018-05-02T07:25:38.191Z,10.64
2018-05-02T07:26:36.181Z,10.60
2018-05-02T07:27:36.096Z,10.75
2018-05-02T07:28:36.050Z,10.76
2018-05-02T07:29:35.996Z,10.87
2018-05-02T07:30:35.952Z,10.92
2018-05-02T07:31:35.919Z,11.04
2018-05-02T07:32:35.945Z,11.23
2018-05-02T07:33:35.791Z,11.26
2018-05-02T07:34:35.777Z,11.37
2018-05-02T07:35:35.699Z,11.45
2018-05-02T07:36:35.645Z,11.59
2018-05-02T07:37:35.601Z,11.62
2018-05-02T07:38:35.579Z,11.70
2018-05-02T07:39:35.507Z,11.83
2018-05-02T07:40:35.509Z,12.04
2018-05-02T07:41:35.417Z,12.15
2018-05-02T07:42:35.359Z,12.24
2018-05-02T07:43:35.305Z,12.42
2018-05-02T07:44:35.272Z,12.37
2018-05-02T07:45:35.250Z,12.45
2018-05-02T07:46:35.163Z,12.40
2018-05-02T07:47:35.149Z,12.35
2018-05-02T07:48:35.141Z,12.31
2018-05-02T07:49:35.016Z,12.13
2018-05-02T07:50:34.964Z,12.06
2018-05-02T07:51:34.952Z,12.07
2018-05-02T07:52:34.867Z,12.17
2018-05-02T07:53:34.820Z,12.29
2018-05-02T07:54:34.778Z,12.31
2018-05-02T07:55:34.725Z,12.35
2018-05-02T07:56:34.795Z,12.25
2018-05-02T07:57:34.638Z,12.24
2018-05-02T07:58:34.577Z,12.32
2018-05-02T07:59:34.568Z,12.40
2018-05-02T08:00:34.518Z,12.47
2018-05-02T08:01:34.437Z,12.65
2018-05-02T08:02:34.395Z,12.82
2018-05-02T08:03:34.346Z,12.93
2018-05-02T08:04:34.302Z,12.79
2018-05-02T08:05:34.294Z,12.79
2018-05-02T08:06:34.195Z,12.75
2018-05-02T08:07:34.158Z,12.78
2018-05-02T08:08:34.100Z,12.79
2018-05-02T08:09:34.051Z,12.94
2018-05-02T08:10:34.049Z,13.16
2018-05-02T08:11:33.956Z,13.35
2018-05-02T08:12:33.910Z,13.53
2018-05-02T08:13:33.864Z,13.57
2018-05-02T08:14:33.817Z,13.54
2018-05-02T08:15:33.818Z,13.81
2018-05-02T08:16:33.805Z,14.08
2018-05-02T08:17:33.682Z,14.28
2018-05-02T08:18:33.670Z,14.44
2018-05-02T08:19:33.610Z,14.44
2018-05-02T08:20:33.572Z,14.53
2018-05-02T08:21:33.479Z,14.59
2018-05-02T08:22:33.444Z,14.81
2018-05-02T08:23:33.457Z,14.84
2018-05-02T08:24:33.346Z,14.92
2018-05-02T08:25:33.297Z,14.94
2018-05-02T08:26:33.253Z,15.00
2018-05-02T08:27:33.239Z,15.33
2018-05-02T08:28:33.227Z,15.54
2018-05-02T08:29:33.112Z,15.46
2018-05-02T08:30:33.068Z,15.52
2018-05-02T08:31:33.014Z,15.52
2018-05-02T08:32:33.015Z,15.59
2018-05-02T08:33:32.932Z,15.82
2018-05-02T08:34:32.894Z,15.82
2018-05-02T08:35:32.872Z,16.02
2018-05-02T08:36:32.781Z,16.21
2018-05-02T08:37:32.739Z,16.33
2018-05-02T08:38:32.692Z,16.26
2018-05-02T08:39:32.688Z,16.26
2018-05-02T08:40:32.599Z,16.41
2018-05-02T08:41:33.626Z,16.43
2018-05-02T08:42:32.540Z,16.47
2018-05-02T08:43:32.462Z,16.35
2018-05-02T08:44:32.451Z,16.35
2018-05-02T08:45:32.372Z,16.32
2018-05-02T08:46:32.362Z,16.36
2018-05-02T08:47:32.281Z,16.38
2018-05-02T08:48:32.285Z,16.29
2018-05-02T08:49:32.217Z,16.17
2018-05-02T08:50:32.172Z,16.15
2018-05-02T08:51:32.156Z,16.04
2018-05-02T08:52:32.100Z,16.02
2018-05-02T08:53:32.021Z,15.94
2018-05-02T08:54:31.967Z,15.94
2018-05-02T08:55:31.919Z,15.98
2018-05-02T08:56:31.911Z,16.01
2018-05-02T08:57:31.960Z,16.05
2018-05-02T08:58:31.794Z,16.05
2018-05-02T08:59:31.733Z,15.94
2018-05-02T09:00:31.694Z,15.97
2018-05-02T09:01:31.681Z,16.00
2018-05-02T09:02:31.603Z,16.05
2018-05-02T09:03:31.557Z,16.09
2018-05-02T09:04:31.509Z,16.15
2018-05-02T09:05:31.499Z,16.28
2018-05-02T09:06:31.424Z,16.26
2018-05-02T09:07:31.379Z,16.20
2018-05-02T09:08:31.363Z,16.10
2018-05-02T09:09:31.296Z,16.05
2018-05-02T09:10:31.239Z,16.12
2018-05-02T09:11:31.193Z,16.08
2018-05-02T09:12:31.154Z,16.17
2018-05-02T09:13:31.146Z,16.20
2018-05-02T09:14:31.064Z,16.17
2018-05-02T09:15:31.099Z,16.24
2018-05-02T09:16:30.983Z,16.38
2018-05-02T09:17:30.946Z,16.46
2018-05-02T09:18:30.917Z,16.39
2018-05-02T09:19:30.868Z,16.39
2018-05-02T09:20:30.794Z,16.23
2018-05-02T09:21:30.745Z,16.28
2018-05-02T09:22:30.711Z,16.29
2018-05-02T09:23:30.666Z,16.42
2018-05-02T09:24:30.659Z,16.46
2018-05-02T09:25:30.572Z,16.57
2018-05-02T09:26:30.523Z,16.53
2018-05-02T09:27:30.489Z,16.54
2018-05-02T09:28:30.431Z,16.47
2018-05-02T09:29:30.421Z,16.57
2018-05-02T09:30:30.343Z,16.46
2018-05-02T09:31:30.322Z,16.38
2018-05-02T09:32:30.297Z,16.39
2018-05-02T09:33:30.213Z,16.56
2018-05-02T09:34:30.165Z,16.58
2018-05-02T09:35:30.123Z,16.58
2018-05-02T09:36:30.118Z,16.60
2018-05-02T09:37:30.035Z,16.71
2018-05-02T09:38:29.999Z,16.74
2018-05-02T09:39:29.959Z,16.72
2018-05-02T09:40:29.897Z,16.69
2018-05-02T09:41:29.896Z,16.74
2018-05-02T09:42:29.811Z,16.81
2018-05-02T09:43:29.781Z,16.79
2018-05-02T09:44:29.756Z,16.84
2018-05-02T09:45:29.677Z,16.89
2018-05-02T09:46:29.633Z,16.87
2018-05-02T09:47:29.594Z,16.99
2018-05-02T09:48:29.547Z,16.87
2018-05-02T09:49:29.551Z,16.83
2018-05-02T09:50:29.491Z,16.90
2018-05-02T09:51:29.411Z,16.78
2018-05-02T09:52:29.369Z,16.79
2018-05-02T09:53:29.336Z,16.81
2018-05-02T09:54:29.323Z,16.79
2018-05-02T09:55:29.237Z,16.90
2018-05-02T09:56:29.191Z,16.78
2018-05-02T09:57:29.152Z,16.81
2018-05-02T09:58:29.105Z,16.84
2018-05-02T09:59:29.097Z,16.91
2018-05-02T10:00:29.019Z,16.89
2018-05-02T10:01:29.007Z,16.89
2018-05-02T10:02:28.929Z,16.86
2018-05-02T10:03:28.936Z,16.78
2018-05-02T10:04:28.905Z,16.78
2018-05-02T10:05:28.802Z,16.78
2018-05-02T10:06:28.759Z,16.81
2018-05-02T10:07:28.724Z,16.72
2018-05-02T10:08:28.715Z,16.76
2018-05-02T10:09:28.624Z,16.72
2018-05-02T10:10:28.580Z,16.68
2018-05-02T10:11:28.537Z,16.66
2018-05-02T10:12:28.510Z,16.60
2018-05-02T10:13:28.496Z,16.54
2018-05-02T10:14:28.404Z,16.58
2018-05-02T10:15:28.354Z,16.54
2018-05-02T10:16:28.318Z,16.57
2018-05-02T10:17:28.270Z,16.64
2018-05-02T10:18:28.347Z,16.71
2018-05-02T10:19:28.242Z,16.74
2018-05-02T10:20:28.135Z,16.75
2018-05-02T10:21:28.100Z,16.76
2018-05-02T10:22:28.057Z,16.79
2018-05-02T10:23:28.003Z,16.81
2018-05-02T10:24:27.990Z,16.87
2018-05-02T10:25:27.913Z,16.75
2018-05-02T10:26:27.869Z,16.86
2018-05-02T10:27:27.831Z,16.87
2018-05-02T10:28:27.794Z,16.75
2018-05-02T10:29:27.801Z,16.64
2018-05-02T10:30:27.752Z,16.60
2018-05-02T10:31:27.657Z,16.58
2018-05-02T10:32:27.606Z,16.65
2018-05-02T10:33:27.565Z,16.68
2018-05-02T10:34:27.555Z,16.61
2018-05-02T10:35:27.524Z,16.68
2018-05-02T10:36:27.435Z,16.64
2018-05-02T10:37:27.398Z,16.60
2018-05-02T10:38:27.348Z,16.66
2018-05-02T10:39:27.301Z,16.64
2018-05-02T10:40:27.309Z,16.71
2018-05-02T10:41:27.222Z,16.79
2018-05-02T10:42:27.167Z,16.78
2018-05-02T10:43:27.132Z,16.75
2018-05-02T10:44:27.077Z,16.78
2018-05-02T10:45:27.085Z,16.74
2018-05-02T10:46:27.002Z,16.76
2018-05-02T10:47:26.945Z,16.78
2018-05-02T10:48:26.909Z,16.71
2018-05-02T10:49:26.862Z,16.75
2018-05-02T10:50:26.933Z,16.78
2018-05-02T10:51:26.786Z,16.84
2018-05-02T10:52:26.723Z,16.75
2018-05-02T10:53:26.716Z,16.79
2018-05-02T10:54:26.637Z,16.81
2018-05-02T10:55:26.595Z,16.74
2018-05-02T10:56:26.590Z,16.81
2018-05-02T10:57:26.515Z,16.81
2018-05-02T10:58:26.468Z,16.71
2018-05-02T10:59:26.457Z,16.66
2018-05-02T11:00:26.372Z,16.60
2018-05-02T11:01:26.333Z,16.71
2018-05-02T11:02:26.282Z,16.64
2018-05-02T11:03:26.254Z,16.60
2018-05-02T11:04:26.236Z,16.61
2018-05-02T11:05:26.191Z,16.64
2018-05-02T11:06:26.118Z,16.64
2018-05-02T11:07:26.073Z,16.66
2018-05-02T11:08:26.109Z,16.68
2018-05-02T11:09:25.978Z,16.69
2018-05-02T11:10:25.980Z,16.81
2018-05-02T11:11:25.893Z,16.89
2018-05-02T11:12:25.846Z,16.87
2018-05-02T11:13:25.807Z,16.87
2018-05-02T11:14:25.768Z,16.86
2018-05-02T11:15:25.747Z,16.86
2018-05-02T11:16:25.716Z,16.90
2018-05-02T11:17:25.740Z,16.86
2018-05-02T11:18:25.583Z,16.90
2018-05-02T11:19:25.539Z,16.86
2018-05-02T11:20:25.497Z,16.94
2018-05-02T11:21:25.487Z,16.90
2018-05-02T11:22:25.408Z,16.93
2018-05-02T11:23:25.360Z,17.02
2018-05-02T11:24:25.335Z,17.09
2018-05-02T11:25:25.275Z,17.16
2018-05-02T11:26:25.269Z,17.16
2018-05-02T11:27:25.195Z,17.19
2018-05-02T11:28:25.192Z,17.24
2018-05-02T11:29:25.106Z,17.24
2018-05-02T11:30:25.055Z,17.30
2018-05-02T11:31:25.070Z,17.31
2018-05-02T11:32:24.973Z,17.24
2018-05-02T11:33:24.929Z,17.26
2018-05-02T11:34:24.878Z,17.20
2018-05-02T11:35:24.843Z,17.24
2018-05-02T11:36:24.826Z,17.24
2018-05-02T11:37:24.755Z,17.27
2018-05-02T11:38:24.771Z,17.42
2018-05-02T11:39:24.699Z,17.33
2018-05-02T11:40:24.621Z,17.46
2018-05-02T11:41:24.575Z,17.39
2018-05-02T11:42:24.528Z,17.34
2018-05-02T11:43:24.528Z,17.49
2018-05-02T11:44:24.448Z,17.27
2018-05-02T11:45:24.401Z,17.44
2018-05-02T11:46:26.456Z,17.51
2018-05-02T11:47:24.318Z,17.57
2018-05-02T11:48:24.348Z,17.54
2018-05-02T11:49:24.226Z,17.44
2018-05-02T11:50:24.184Z,17.56
2018-05-02T11:51:24.137Z,17.60
2018-05-02T11:52:24.113Z,17.63
2018-05-02T11:53:24.160Z,17.63
2018-05-02T11:54:24.062Z,17.63
2018-05-02T11:55:23.964Z,17.65
2018-05-02T11:56:23.943Z,17.57
2018-05-02T11:57:23.915Z,17.67
2018-05-02T11:58:23.840Z,17.71
2018-05-02T11:59:23.848Z,17.72
2018-05-02T12:00:23.754Z,17.89
2018-05-02T12:01:23.713Z,17.86
2018-05-02T12:02:23.671Z,17.86
2018-05-02T12:03:23.617Z,17.89
2018-05-02T12:04:23.658Z,17.92
2018-05-02T12:05:23.561Z,17.94
2018-05-02T12:06:23.487Z,18.03
2018-05-02T12:07:23.445Z,17.94
2018-05-02T12:08:23.405Z,17.90
2018-05-02T12:09:23.880Z,17.82
2018-05-02T12:10:23.332Z,18.00
2018-05-02T12:11:23.307Z,17.95
2018-05-02T12:12:23.231Z,18.00
2018-05-02T12:13:23.197Z,18.00
2018-05-02T12:14:23.146Z,17.92
2018-05-02T12:15:23.137Z,17.97
2018-05-02T12:16:23.104Z,17.94
2018-05-02T12:17:23.033Z,17.94
2018-05-02T12:18:22.976Z,17.90
2018-05-02T12:19:22.934Z,17.90
2018-05-02T12:20:22.884Z,17.92
2018-05-02T12:21:22.880Z,18.00
2018-05-02T12:22:22.807Z,18.01
2018-05-02T12:23:22.757Z,18.01
2018-05-02T12:24:22.751Z,18.08
2018-05-02T12:25:22.677Z,17.98
2018-05-02T12:26:22.626Z,18.13
2018-05-02T12:27:22.593Z,18.08
2018-05-02T12:28:22.581Z,18.04
2018-05-02T12:29:22.516Z,18.10
2018-05-02T12:30:22.462Z,18.19
2018-05-02T12:31:22.435Z,18.18
2018-05-02T12:32:22.371Z,18.18
2018-05-02T12:33:22.378Z,18.23
2018-05-02T12:34:22.286Z,18.08
2018-05-02T12:35:22.324Z,18.07
2018-05-02T12:36:22.245Z,18.07
2018-05-02T12:37:22.160Z,18.07
2018-05-02T12:38:22.157Z,18.04
2018-05-02T12:39:22.088Z,17.97
2018-05-02T12:40:22.045Z,17.97
2018-05-02T12:41:21.984Z,17.95
2018-05-02T12:42:21.941Z,18.11
2018-05-02T12:43:21.934Z,18.08
2018-05-02T12:44:21.970Z,18.08
2018-05-02T12:45:21.822Z,18.19
2018-05-02T12:46:21.772Z,18.20
2018-05-02T12:47:21.727Z,18.16
2018-05-02T12:48:21.727Z,18.25
2018-05-02T12:49:21.686Z,18.22
2018-05-02T12:50:21.597Z,18.35
2018-05-02T12:51:21.590Z,18.44
2018-05-02T12:52:21.514Z,18.47
2018-05-02T12:53:21.503Z,18.55
2018-05-02T12:54:21.442Z,18.65
2018-05-02T12:55:21.436Z,18.58
2018-05-02T12:56:21.412Z,18.63
2018-05-02T12:57:21.316Z,18.77
2018-05-02T12:58:21.262Z,18.73
2018-05-02T12:59:21.217Z,18.74
2018-05-02T13:00:21.203Z,18.92
2018-05-02T13:01:21.190Z,18.89
2018-05-02T13:02:21.086Z,18.99
2018-05-02T13:03:21.046Z,18.93
2018-05-02T13:04:21.006Z,18.93
2018-05-02T13:05:20.997Z,18.96
2018-05-02T13:06:20.913Z,19.02